Time;durP1;ratioP1;P1;durP2;ratioP2;P2;SDS_P1;SDS_P2;PMS_P1;PMS_P2;Temp;Humidity;BMP_temperature;BMP_pressure;BME280_temperature;BME280_humidity;BME280_pressure;Samples;Min_cycle;Max_cycle;Signal;HPM_P1;HPM_P2
2021/09/15 07:18:39;;;;;;;16.42;14.57;;;;;;;18.10;100.00;100563.22;2604688;31;22336;-55
2021/09/15 07:21:06;;;;;;;18.90;13.50;;;;;;;18.36;100.00;100562.16;2616484;31;20045;-51
2021/09/15 07:23:33;;;;;;;18.80;14.30;;;;;;;18.33;100.00;100557.84;2617226;31;20058;-51
2021/09/15 07:26:00;;;;;;;16.70;13.82;;;;;;;18.36;100.00;100559.56;2616339;36;20022;-52
2021/09/15 07:28:29;;;;;;;18.15;14.75;;;;;;;18.38;100.00;100563.00;2617999;36;20037;-53
2021/09/15 07:30:57;;;;;;;15.48;13.07;;;;;;;18.48;100.00;100564.63;2620488;36;20147;-49
2021/09/15 07:33:24;;;;;;;15.70;14.02;;;;;;;18.61;100.00;100553.28;2618584;36;20030;-49
2021/09/15 07:35:51;;;;;;;17.05;13.55;;;;;;;18.56;100.00;100557.66;2618966;31;20447;-51
2021/09/15 07:38:18;;;;;;;14.68;13.25;;;;;;;18.74;100.00;100564.44;2619453;36;20039;-55
2021/09/15 07:40:46;;;;;;;16.52;13.57;;;;;;;18.79;100.00;100563.50;2618814;31;20061;-44
2021/09/15 07:43:13;;;;;;;14.65;13.25;;;;;;;18.83;100.00;100553.97;2616005;36;20585;-50
2021/09/15 07:45:40;;;;;;;14.35;12.95;;;;;;;18.98;100.00;100553.78;2615130;31;20058;-45
2021/09/15 07:48:07;;;;;;;15.70;13.65;;;;;;;19.12;100.00;100561.41;2615169;31;20030;-48
2021/09/15 07:50:34;;;;;;;14.23;12.73;;;;;;;19.07;100.00;100563.22;2615963;31;20598;-47
2021/09/15 07:53:01;;;;;;;15.80;12.00;;;;;;;19.13;100.00;100557.94;2615384;31;20030;-43
2021/09/15 07:55:29;;;;;;;14.40;12.48;;;;;;;19.29;100.00;100564.69;2617206;31;20038;-50
2021/09/15 07:57:56;;;;;;;14.13;12.60;;;;;;;19.50;100.00;100565.28;2614887;36;20034;-44
2021/09/15 08:00:23;;;;;;;14.25;12.57;;;;;;;19.40;99.40;100566.28;2615126;36;20586;-45
2021/09/15 08:02:50;;;;;;;14.48;11.65;;;;;;;19.76;98.41;100565.81;2615547;31;20018;-44
2021/09/15 08:05:17;;;;;;;12.80;11.40;;;;;;;19.89;96.27;100557.84;2615239;36;20034;-46
2021/09/15 08:07:45;;;;;;;12.77;11.55;;;;;;;19.99;96.53;100565.50;2615188;31;20038;-44
2021/09/15 08:10:12;;;;;;;13.23;11.80;;;;;;;21.18;90.59;100575.59;2615372;31;20486;-46
2021/09/15 08:12:39;;;;;;;11.90;10.70;;;;;;;22.39;82.55;100570.34;2616341;36;20035;-43
2021/09/15 08:15:06;;;;;;;15.27;10.57;;;;;;;23.02;81.38;100580.03;2614930;36;20030;-46
2021/09/15 08:17:34;;;;;;;13.00;10.38;;;;;;;23.38;77.16;100577.25;2614662;31;20598;-48
2021/09/15 08:20:03;;;;;;;27.77;12.15;;;;;;;22.56;80.51;100570.78;2614709;36;20098;-44
2021/09/15 08:22:30;;;;;;;12.40;9.70;;;;;;;21.88;82.97;100573.25;2613114;36;20038;-47
2021/09/15 08:24:57;;;;;;;11.15;10.05;;;;;;;22.05;83.08;100571.13;2614514;31;20030;-45
2021/09/15 08:27:24;;;;;;;17.27;10.05;;;;;;;21.53;85.83;100566.22;2614623;36;20196;-45
2021/09/15 08:29:52;;;;;;;18.63;11.32;;;;;;;21.81;88.44;100567.31;2616088;31;20041;-50
2021/09/15 08:32:19;;;;;;;10.93;10.02;;;;;;;21.39;89.38;100561.28;2615500;31;20138;-44
2021/09/15 08:34:46;;;;;;;12.23;10.02;;;;;;;21.42;89.18;100561.25;2615108;36;20141;-49
2021/09/15 08:37:13;;;;;;;10.52;9.45;;;;;;;21.61;90.24;100562.56;2614625;36;20038;-44
2021/09/15 08:39:40;;;;;;;10.60;9.57;;;;;;;22.08;84.43;100560.59;2615334;31;20057;-44
2021/09/15 08:42:08;;;;;;;10.25;9.27;;;;;;;22.08;84.55;100549.31;2615502;31;20550;-44
2021/09/15 08:44:36;;;;;;;11.23;9.57;;;;;;;21.96;83.93;100550.50;2614754;36;20027;-45
2021/09/15 08:47:05;;;;;;;11.13;10.00;;;;;;;21.78;86.04;100543.94;2614788;31;20880;-44
2021/09/15 08:49:34;;;;;;;12.13;9.95;;;;;;;21.99;86.79;100546.94;2614847;36;20462;-44
2021/09/15 08:52:01;;;;;;;14.18;10.23;;;;;;;22.21;85.74;100552.53;2614678;36;20034;-46
2021/09/15 08:54:29;;;;;;;11.15;10.15;;;;;;;22.44;87.07;100547.59;2614988;36;20031;-47
2021/09/15 08:56:56;;;;;;;10.63;9.48;;;;;;;22.50;83.94;100541.34;2615326;31;20465;-55
2021/09/15 08:59:23;;;;;;;11.45;9.82;;;;;;;22.39;83.08;100540.78;2614838;31;20046;-45
2021/09/15 09:02:08;;;;;;;10.95;9.02;;;;;;;22.54;82.05;100545.59;2614809;36;20042;-44
2021/09/15 09:04:57;;;;;;;11.45;8.70;;;;;;;22.56;81.76;100539.44;2578920;31;2004253;-48
2021/09/15 09:07:25;;;;;;;11.32;8.80;;;;;;;22.18;84.51;100545.63;2615535;31;20558;-43
2021/09/15 09:09:55;;;;;;;10.25;9.30;;;;;;;22.33;83.73;100547.03;2615423;36;20438;-46
2021/09/15 09:12:25;;;;;;;11.00;8.85;;;;;;;23.71;77.02;100525.78;2615454;31;20030;-45
2021/09/15 09:15:10;;;;;;;9.70;8.57;;;;;;;23.91;75.12;100537.34;2615510;31;20034;-45
2021/09/15 09:17:37;;;;;;;9.40;8.35;;;;;;;24.07;78.75;100531.56;2578209;36;2004355;-43
2021/09/15 09:20:15;;;;;;;10.20;7.90;;;;;;;24.41;73.12;100532.25;2614526;36;20057;-45
2021/09/15 09:22:59;;;;;;;9.10;8.07;;;;;;;24.39;74.25;100527.91;2613497;36;20158;-48
2021/09/15 09:25:30;;;;;;;10.18;8.38;;;;;;;24.33;75.47;100525.47;2578135;31;2004357;-45
2021/09/15 09:27:57;;;;;;;9.18;8.35;;;;;;;24.66;77.38;100525.25;2614767;31;20570;-43
2021/09/15 09:30:38;;;;;;;10.57;8.35;;;;;;;25.01;69.62;100525.75;2615999;36;20423;-48
2021/09/15 09:33:07;;;;;;;12.07;7.93;;;;;;;24.91;71.94;100530.44;2580947;31;2004330;-54
2021/09/15 09:35:47;;;;;;;9.20;8.27;;;;;;;24.13;73.62;100530.53;2616210;31;20037;-46
2021/09/15 09:38:20;;;;;;;15.70;8.43;;;;;;;24.03;74.91;100529.09;2615137;36;20038;-46
2021/09/15 09:41:01;;;;;;;8.68;7.80;;;;;;;23.98;74.41;100531.00;2616202;31;20038;-45
2021/09/15 09:43:32;;;;;;;9.63;8.70;;;;;;;23.74;75.68;100523.03;2579588;31;2004575;-44
2021/09/15 09:46:00;;;;;;;10.93;8.18;;;;;;;23.76;76.14;100526.47;2615405;36;20023;-44
2021/09/15 09:48:54;;;;;;;9.63;8.75;;;;;;;23.48;76.30;100531.69;2615489;31;20058;-43
2021/09/15 09:51:36;;;;;;;10.52;8.75;;;;;;;23.50;79.78;100524.63;2615576;36;20034;-44
2021/09/15 09:54:12;;;;;;;11.65;8.15;;;;;;;23.09;81.34;100523.22;2579467;36;2004332;-47
2021/09/15 09:56:42;;;;;;;11.23;9.48;;;;;;;23.00;82.80;100521.75;2614872;36;20057;-43
2021/09/15 09:59:10;;;;;;;11.38;9.40;;;;;;;22.97;80.18;100524.47;2615510;36;20110;-48
2021/09/15 10:01:44;;;;;;;16.85;10.25;;;;;;;23.15;81.16;100520.44;2616347;31;20450;-46
2021/09/15 10:04:14;;;;;;;10.35;8.90;;;;;;;22.88;84.29;100514.25;2615456;31;20041;-44
2021/09/15 10:06:43;;;;;;;9.45;8.45;;;;;;;23.31;81.65;100508.66;2615080;31;20035;-48
2021/09/15 10:09:11;;;;;;;10.13;9.02;;;;;;;23.15;82.14;100511.75;2615702;31;20026;-47
2021/09/15 10:11:40;;;;;;;11.00;9.00;;;;;;;23.51;81.33;100507.19;2615358;31;20041;-45
2021/09/15 10:14:13;;;;;;;11.07;9.93;;;;;;;23.67;78.94;100499.78;2614957;36;20034;-51
2021/09/15 10:16:46;;;;;;;9.85;8.85;;;;;;;24.25;78.64;100497.84;2614967;31;20034;-45
2021/09/15 10:19:24;;;;;;;9.50;8.70;;;;;;;24.39;76.52;100496.50;2614956;36;21355;-51
2021/09/15 10:22:02;;;;;;;10.18;8.80;;;;;;;25.13;73.25;100493.88;2615766;31;20696;-46
2021/09/15 10:24:48;;;;;;;10.25;8.25;;;;;;;25.05;73.92;100496.78;2579934;31;2004377;-45
2021/09/15 10:27:17;;;;;;;11.25;8.55;;;;;;;26.43;69.84;100486.03;2623116;31;20041;-52
2021/09/15 10:30:07;;;;;;;9.13;8.32;;;;;;;26.75;66.33;100481.13;2619778;36;20065;-49
2021/09/15 10:32:49;;;;;;;12.65;8.43;;;;;;;27.87;61.91;100482.03;2581085;36;2004448;-52
2021/09/15 10:35:43;;;;;;;10.55;9.50;;;;;;;28.97;59.24;100486.06;2621896;31;20410;-49
2021/09/15 10:38:10;;;;;;;10.48;7.82;;;;;;;27.71;62.82;100483.69;2586638;36;2004597;-50
2021/09/15 10:40:39;;;;;;;9.55;8.68;;;;;;;29.13;61.23;100486.94;2622729;36;20033;-45
2021/09/15 10:43:40;;;;;;;8.48;7.70;;;;;;;30.83;51.07;100492.94;2615956;31;20037;-48
2021/09/15 10:46:24;;;;;;;10.60;8.00;;;;;;;28.98;56.78;100482.50;2579356;31;2004232;-48
2021/09/15 10:49:22;;;;;;;9.10;8.00;;;;;;;28.00;61.21;100475.22;2615296;31;20023;-46
2021/09/15 10:52:08;;;;;;;8.75;7.90;;;;;;;27.54;64.63;100468.72;2578579;36;2004395;-48
2021/09/15 10:54:44;;;;;;;;;;;;;;;27.05;63.00;100463.13;2580078;31;2004492;-44
2021/09/15 10:57:27;;;;;;;9.90;7.88;;;;;;;27.58;61.21;100462.38;2614940;36;20438;-44
2021/09/15 11:00:21;;;;;;;8.75;7.78;;;;;;;27.21;61.65;100461.50;2616078;31;20045;-47
2021/09/15 11:02:49;;;;;;;8.27;7.50;;;;;;;27.07;64.44;100458.66;2581864;31;2004776;-47
2021/09/15 11:05:26;;;;;;;8.00;7.20;;;;;;;26.63;65.05;100445.78;2615286;36;20036;-48
2021/09/15 11:07:59;;;;;;;9.13;7.97;;;;;;;26.71;64.75;100448.03;2615115;36;20038;-49
2021/09/15 11:13:00;;;;;;;7.72;7.13;;;;;;;27.60;59.03;100445.59;2579277;36;2004361;-48
2021/09/15 11:15:36;;;;;;;8.48;7.75;;;;;;;27.44;59.96;100452.53;2616387;31;20543;-44
2021/09/15 11:18:03;;;;;;;;;;;;;;;27.11;61.67;100447.09;2578816;36;2004391;-49
2021/09/15 11:20:33;;;;;;;8.80;7.75;;;;;;;27.34;61.74;100444.22;2615074;36;20421;-44
2021/09/15 11:23:07;;;;;;;8.10;7.50;;;;;;;27.76;61.94;100434.34;2615150;36;20033;-46
2021/09/15 11:25:35;;;;;;;7.90;7.20;;;;;;;28.30;60.37;100440.38;2615151;31;20030;-46
2021/09/15 11:28:13;;;;;;;8.38;6.70;;;;;;;28.57;59.62;100443.38;2614710;36;20035;-46
2021/09/15 11:30:56;;;;;;;7.72;7.13;;;;;;;30.23;53.26;100453.41;2615686;31;20058;-47
2021/09/15 11:33:31;;;;;;;7.50;6.70;;;;;;;29.75;57.08;100452.69;2616019;31;20030;-46
2021/09/15 11:36:09;;;;;;;14.48;8.18;;;;;;;30.11;54.51;100445.25;2580587;31;2004469;-46
2021/09/15 11:38:39;;;;;;;10.02;7.22;;;;;;;28.82;56.57;100448.19;2618432;36;20038;-52
2021/09/15 11:41:09;;;;;;;7.75;7.03;;;;;;;27.97;58.76;100440.34;2617621;36;20585;-46
2021/09/15 11:43:39;;;;;;;7.53;6.88;;;;;;;27.59;62.12;100435.13;2615778;36;20046;-47
2021/09/15 11:46:06;;;;;;;8.60;7.78;;;;;;;27.62;61.36;100427.97;2615282;36;20037;-48
2021/09/15 11:48:35;;;;;;;8.27;7.47;;;;;;;27.25;63.69;100434.16;2615297;36;20597;-47
2021/09/15 11:51:22;;;;;;;8.32;7.05;;;;;;;27.15;62.45;100428.47;2615193;31;20031;-50
2021/09/15 11:54:07;;;;;;;10.40;6.95;;;;;;;27.22;62.39;100436.91;2615208;31;20034;-46
2021/09/15 11:56:42;;;;;;;8.23;6.88;;;;;;;26.75;63.75;100442.56;2578770;31;2004695;-47
2021/09/15 11:59:11;;;;;;;9.38;7.15;;;;;;;27.03;65.11;100446.56;2614640;36;20031;-47
2021/09/15 12:02:01;;;;;;;8.68;7.50;;;;;;;26.45;64.21;100436.09;2579531;31;2004274;-51
2021/09/15 12:04:31;;;;;;;12.30;8.48;;;;;;;26.41;65.20;100443.22;2614828;36;20037;-51
2021/09/15 12:07:00;;;;;;;8.50;7.18;;;;;;;26.58;65.77;100440.72;2578770;36;2004401;-51
2021/09/15 12:09:28;;;;;;;9.02;8.05;;;;;;;26.20;65.72;100446.75;2615490;31;20039;-48
2021/09/15 12:11:56;;;;;;;10.00;8.00;;;;;;;26.28;66.66;100439.41;2614824;36;20097;-47
2021/09/15 12:14:32;;;;;;;8.15;7.47;;;;;;;25.87;68.54;100450.75;2614901;36;20065;-50
2021/09/15 12:17:02;;;;;;;8.77;7.85;;;;;;;25.99;69.34;100444.13;2578452;31;2004370;-51
2021/09/15 12:19:29;;;;;;;9.48;8.50;;;;;;;25.71;69.83;100454.03;2615014;31;20063;-49
2021/09/15 12:21:56;;;;;;;10.73;8.40;;;;;;;25.54;70.20;100452.94;2615132;36;20462;-49
2021/09/15 12:24:25;;;;;;;9.00;8.20;;;;;;;25.52;70.37;100461.81;2614449;36;20072;-49
2021/09/15 12:26:53;;;;;;;9.50;8.60;;;;;;;25.20;71.61;100448.19;2615016;31;20058;-51
2021/09/15 12:29:22;;;;;;;12.07;8.50;;;;;;;25.09;73.76;100450.34;2614644;36;20042;-48
2021/09/15 12:32:01;;;;;;;10.45;7.85;;;;;;;24.91;75.30;100454.47;2616174;31;20038;-51
2021/09/15 12:34:34;;;;;;;14.18;8.05;;;;;;;24.90;74.08;100460.63;2581393;31;2004401;-50
2021/09/15 12:37:17;;;;;;;9.02;6.90;;;;;;;24.74;72.76;100464.75;2614288;36;20042;-49
2021/09/15 12:39:58;;;;;;;7.60;6.90;;;;;;;24.26;73.51;100466.38;2614841;36;20041;-53
2021/09/15 12:42:30;;;;;;;6.28;5.78;;;;;;;23.96;74.54;100462.22;2614560;36;20038;-51
2021/09/15 12:45:10;;;;;;;7.07;6.38;;;;;;;23.79;78.32;100475.81;2614924;36;20062;-52
2021/09/15 12:47:40;;;;;;;10.85;7.13;;;;;;;23.28;82.24;100474.75;2578042;36;2004544;-49
2021/09/15 12:50:19;;;;;;;10.20;6.68;;;;;;;22.71;87.78;100477.28;2614718;36;20026;-52
2021/09/15 12:52:49;;;;;;;8.18;7.35;;;;;;;22.41;96.19;100471.13;2614476;36;20042;-50
2021/09/15 12:55:28;;;;;;;9.18;7.38;;;;;;;21.84;100.00;100475.16;2616629;36;20068;-49
2021/09/15 12:58:03;;;;;;;11.20;7.55;;;;;;;21.33;100.00;100470.25;2614594;36;20026;-47
2021/09/15 13:00:34;;;;;;;11.35;8.85;;;;;;;20.56;100.00;100470.94;2580124;31;2004121;-49
2021/09/15 13:03:03;;;;;;;14.35;11.77;;;;;;;20.14;100.00;100464.72;2615955;31;20038;-47
2021/09/15 13:05:41;;;;;;;17.05;12.60;;;;;;;19.86;100.00;100470.38;2615369;36;20038;-47
2021/09/15 13:08:26;;;;;;;17.55;14.27;;;;;;;19.80;100.00;100455.75;2615154;31;20031;-46
2021/09/15 13:10:57;;;;;;;18.50;14.30;;;;;;;19.74;100.00;100455.00;2615588;31;20034;-47
2021/09/15 13:13:29;;;;;;;15.20;12.27;;;;;;;19.52;100.00;100457.03;2615735;31;20034;-48
2021/09/15 13:15:59;;;;;;;17.73;13.15;;;;;;;19.45;100.00;100450.22;2615626;36;20043;-46
2021/09/15 13:18:27;;;;;;;21.85;15.65;;;;;;;19.52;100.00;100450.09;2617063;36;20586;-49
2021/09/15 13:20:54;;;;;;;16.80;14.50;;;;;;;19.40;100.00;100454.63;2615842;31;20030;-46
2021/09/15 13:23:21;;;;;;;17.95;14.27;;;;;;;19.38;100.00;100454.66;2616042;31;20030;-47
2021/09/15 13:25:49;;;;;;;20.45;14.82;;;;;;;19.54;100.00;100450.94;2616270;31;20031;-45
2021/09/15 13:28:17;;;;;;;16.40;13.98;;;;;;;19.51;100.00;100448.41;2615703;36;20031;-48
2021/09/15 13:30:44;;;;;;;23.00;17.42;;;;;;;19.62;100.00;100456.06;2615371;31;20081;-46
2021/09/15 13:33:11;;;;;;;20.65;16.45;;;;;;;19.59;100.00;100441.31;2615179;36;20030;-50
2021/09/15 13:35:39;;;;;;;19.73;16.48;;;;;;;19.75;100.00;100446.34;2614492;36;20129;-45
2021/09/15 13:38:06;;;;;;;16.42;14.20;;;;;;;19.54;100.00;100447.47;2614215;36;20037;-48
2021/09/15 13:40:34;;;;;;;16.45;14.15;;;;;;;19.55;100.00;100444.00;2617209;31;20034;-50
2021/09/15 13:43:01;;;;;;;20.92;16.92;;;;;;;19.72;100.00;100446.38;2619572;36;20029;-48
2021/09/15 13:45:28;;;;;;;20.65;18.08;;;;;;;19.68;100.00;100439.50;2620003;36;20030;-51
2021/09/15 13:47:55;;;;;;;16.95;15.15;;;;;;;19.43;100.00;100434.66;2618774;31;20034;-51
2021/09/15 13:50:24;;;;;;;19.00;16.35;;;;;;;19.49;100.00;100429.38;2618318;36;20075;-47
2021/09/15 13:52:52;;;;;;;18.85;16.85;;;;;;;19.47;100.00;100422.50;2621272;31;20031;-51
2021/09/15 13:55:20;;;;;;;25.88;18.48;;;;;;;19.43;100.00;100411.28;2617626;36;20466;-48
2021/09/15 13:57:48;;;;;;;24.15;18.90;;;;;;;19.47;100.00;100409.50;2615660;31;20570;-47
2021/09/15 14:00:17;;;;;;;30.20;21.10;;;;;;;19.49;100.00;100405.13;2614950;36;20046;-45
2021/09/15 14:02:44;;;;;;;26.67;20.55;;;;;;;19.38;100.00;100397.53;2616353;31;20029;-44
2021/09/15 14:05:11;;;;;;;24.92;21.55;;;;;;;19.40;100.00;100389.69;2615928;31;20035;-47
2021/09/15 14:07:39;;;;;;;28.08;21.60;;;;;;;19.45;100.00;100390.47;2614940;36;20050;-47
2021/09/15 14:10:08;;;;;;;26.20;20.77;;;;;;;19.52;100.00;100394.72;2615665;31;20037;-48
2021/09/15 14:12:57;;;;;;;30.58;22.13;;;;;;;19.45;100.00;100388.72;2618240;31;20504;-54
2021/09/15 14:15:26;;;;;;;26.60;22.35;;;;;;;19.57;100.00;100390.28;2617387;31;20037;-47
2021/09/15 14:17:53;;;;;;;24.05;21.48;;;;;;;19.73;100.00;100401.31;2616424;31;20038;-47
2021/09/15 14:20:21;;;;;;;23.67;19.67;;;;;;;19.82;100.00;100393.38;2615205;36;20031;-47
2021/09/15 14:22:49;;;;;;;21.58;19.30;;;;;;;19.88;100.00;100392.44;2615149;36;20035;-47
2021/09/15 14:25:16;;;;;;;20.58;18.00;;;;;;;19.77;100.00;100387.38;2615224;36;20045;-50
2021/09/15 14:27:43;;;;;;;20.30;17.23;;;;;;;19.68;100.00;100392.75;2615576;31;20030;-48
2021/09/15 14:30:12;;;;;;;22.65;18.17;;;;;;;19.80;100.00;100389.94;2615535;36;20424;-47
2021/09/15 14:32:39;;;;;;;21.27;17.27;;;;;;;19.79;100.00;100399.47;2616782;31;20034;-46
2021/09/15 14:35:07;;;;;;;20.27;17.60;;;;;;;19.75;100.00;100402.16;2616200;31;20031;-45
2021/09/15 14:37:34;;;;;;;22.08;18.95;;;;;;;19.75;100.00;100391.78;2616347;31;20049;-45
2021/09/15 14:40:03;;;;;;;19.35;15.90;;;;;;;19.74;100.00;100392.66;2616900;31;20038;-47
2021/09/15 14:42:31;;;;;;;20.75;18.58;;;;;;;19.86;100.00;100394.19;2617197;36;20041;-50
2021/09/15 14:44:59;;;;;;;18.02;16.13;;;;;;;19.78;100.00;100397.78;2617326;31;20030;-44
2021/09/15 14:47:26;;;;;;;18.45;14.82;;;;;;;19.95;100.00;100394.88;2616907;31;20041;-48
2021/09/15 14:49:53;;;;;;;20.10;16.60;;;;;;;20.02;100.00;100400.84;2615363;36;20157;-45
2021/09/15 14:52:20;;;;;;;19.30;16.77;;;;;;;19.84;100.00;100395.06;2615504;31;20045;-48
2021/09/15 14:54:48;;;;;;;18.35;16.52;;;;;;;19.84;100.00;100402.00;2615378;31;20057;-47
2021/09/15 14:57:16;;;;;;;23.95;16.77;;;;;;;19.83;100.00;100393.34;2615271;36;20061;-46
2021/09/15 14:59:45;;;;;;;20.75;16.67;;;;;;;19.79;100.00;100398.63;2615316;36;20031;-44
2021/09/15 15:02:14;;;;;;;18.70;16.75;;;;;;;19.67;100.00;100394.47;2614865;36;20663;-51
2021/09/15 15:04:41;;;;;;;19.38;16.25;;;;;;;19.55;100.00;100387.72;2616163;31;20034;-46
2021/09/15 15:07:09;;;;;;;21.40;18.80;;;;;;;19.56;100.00;100391.19;2614843;31;20161;-50
2021/09/15 15:09:36;;;;;;;24.00;18.45;;;;;;;19.47;100.00;100380.94;2614802;36;20045;-44
2021/09/15 15:12:03;;;;;;;23.00;20.00;;;;;;;19.43;100.00;100381.88;2615045;31;20061;-45
2021/09/15 15:14:30;;;;;;;22.48;18.58;;;;;;;19.38;100.00;100381.94;2615616;31;20439;-48
2021/09/15 15:17:00;;;;;;;19.42;17.38;;;;;;;19.42;100.00;100380.16;2614751;31;20075;-47
2021/09/15 15:19:28;;;;;;;21.70;18.98;;;;;;;19.42;100.00;100374.97;2614085;36;20031;-44
2021/09/15 15:21:55;;;;;;;25.92;21.73;;;;;;;19.38;100.00;100373.28;2614951;36;20056;-47
2021/09/15 15:24:24;;;;;;;27.70;22.05;;;;;;;19.27;100.00;100373.44;2614347;36;20570;-46
2021/09/15 15:26:56;;;;;;;29.95;25.30;;;;;;;19.32;100.00;100374.25;2614657;36;20038;-45
2021/09/15 15:29:24;;;;;;;28.05;22.50;;;;;;;19.27;100.00;100378.63;2614496;36;20030;-50
2021/09/15 15:31:53;;;;;;;30.27;24.42;;;;;;;19.33;100.00;100373.38;2615182;36;20038;-50
2021/09/15 15:34:20;;;;;;;29.25;26.10;;;;;;;19.25;100.00;100372.63;2615439;31;20034;-47
2021/09/15 15:36:47;;;;;;;32.97;27.50;;;;;;;19.32;100.00;100369.91;2619838;36;20033;-54
2021/09/15 15:39:14;;;;;;;27.92;24.52;;;;;;;19.21;100.00;100365.75;2620989;36;20031;-57
2021/09/15 15:41:41;;;;;;;30.52;24.33;;;;;;;19.12;100.00;100358.94;2616855;36;20034;-46
2021/09/15 15:44:11;;;;;;;30.23;25.35;;;;;;;19.12;100.00;100356.34;2615813;31;20075;-48
2021/09/15 15:46:41;;;;;;;29.52;25.42;;;;;;;19.11;100.00;100365.03;2615259;36;20573;-48
2021/09/15 15:49:08;;;;;;;30.55;26.98;;;;;;;19.05;100.00;100363.38;2615752;36;20471;-47
2021/09/15 15:51:36;;;;;;;32.25;27.17;;;;;;;18.99;100.00;100357.41;2616457;31;20035;-55
2021/09/15 15:54:03;;;;;;;31.00;27.33;;;;;;;18.93;100.00;100357.50;2614987;36;20084;-46
2021/09/15 15:56:30;;;;;;;39.10;28.88;;;;;;;18.89;100.00;100346.31;2615255;31;20034;-47
2021/09/15 15:58:57;;;;;;;36.78;27.98;;;;;;;18.79;100.00;100332.59;2614903;36;20030;-51
2021/09/15 16:01:25;;;;;;;35.92;29.38;;;;;;;18.76;100.00;100326.59;2614832;36;20581;-47
2021/09/15 16:03:52;;;;;;;42.97;33.45;;;;;;;18.75;100.00;100328.34;2615111;36;20042;-48
2021/09/15 16:06:22;;;;;;;42.00;32.35;;;;;;;18.73;100.00;100326.66;2615176;36;20086;-51
2021/09/15 16:08:53;;;;;;;45.65;35.88;;;;;;;18.69;100.00;100330.16;2615235;36;20050;-46
2021/09/15 16:11:23;;;;;;;48.47;36.35;;;;;;;18.74;100.00;100329.22;2615311;36;20427;-46
2021/09/15 16:13:50;;;;;;;47.38;35.65;;;;;;;18.67;100.00;100330.13;2615312;31;20420;-51
2021/09/15 16:16:17;;;;;;;48.33;36.97;;;;;;;18.67;100.00;100321.50;2615228;31;20037;-51
2021/09/15 16:18:45;;;;;;;49.53;36.63;;;;;;;18.65;100.00;100316.34;2614875;36;20187;-50
2021/09/15 16:21:13;;;;;;;49.35;35.75;;;;;;;18.62;100.00;100320.72;2615310;31;20034;-48
2021/09/15 16:23:41;;;;;;;44.45;33.72;;;;;;;18.57;100.00;100310.38;2615111;36;20446;-49
2021/09/15 16:26:08;;;;;;;48.65;35.58;;;;;;;18.61;100.00;100312.06;2615698;31;20030;-52
2021/09/15 16:28:35;;;;;;;45.08;34.58;;;;;;;18.52;100.00;100310.44;2614586;36;20031;-47
2021/09/15 16:31:02;;;;;;;42.72;34.20;;;;;;;18.54;100.00;100306.13;2615486;36;20438;-50
2021/09/15 16:33:29;;;;;;;39.80;32.58;;;;;;;18.51;100.00;100308.75;2615578;31;20083;-47
2021/09/15 16:35:56;;;;;;;43.35;32.65;;;;;;;18.45;100.00;100302.78;2615156;31;20065;-45
2021/09/15 16:38:23;;;;;;;34.75;29.67;;;;;;;18.41;100.00;100295.94;2614883;36;20038;-50
2021/09/15 16:40:51;;;;;;;39.08;31.25;;;;;;;18.38;100.00;100293.38;2617048;31;20427;-45
2021/09/15 16:43:19;;;;;;;36.15;30.02;;;;;;;18.36;100.00;100285.63;2614901;36;20031;-45
2021/09/15 16:45:46;;;;;;;36.55;31.75;;;;;;;18.33;100.00;100288.25;2616085;31;20082;-48
2021/09/15 16:48:14;;;;;;;37.65;30.45;;;;;;;18.32;100.00;100286.53;2615161;31;20596;-49
2021/09/15 16:50:43;;;;;;;40.60;31.25;;;;;;;18.29;100.00;100283.97;2614755;36;20038;-46
2021/09/15 16:53:13;;;;;;;37.97;31.85;;;;;;;18.26;100.00;100276.25;2615068;36;20069;-51
2021/09/15 16:55:41;;;;;;;37.22;32.28;;;;;;;18.24;100.00;100270.22;2615076;36;20030;-49
2021/09/15 16:58:11;;;;;;;38.92;31.45;;;;;;;18.25;100.00;100271.91;2615030;31;20168;-48
2021/09/15 17:00:41;;;;;;;38.58;30.00;;;;;;;18.21;100.00;100272.81;2616167;31;20590;-48
2021/09/15 17:03:08;;;;;;;34.75;30.40;;;;;;;18.20;100.00;100266.78;2615424;31;20031;-49
2021/09/15 17:05:38;;;;;;;35.60;29.83;;;;;;;18.18;100.00;100265.09;2615325;31;20037;-49
2021/09/15 17:08:06;;;;;;;40.00;31.92;;;;;;;18.17;100.00;100268.59;2615003;36;20034;-52
2021/09/15 17:10:33;;;;;;;38.50;31.33;;;;;;;18.14;100.00;100258.25;2616353;31;20097;-47
2021/09/15 17:13:00;;;;;;;35.67;29.48;;;;;;;18.11;100.00;100259.13;2616145;31;20031;-50
2021/09/15 17:15:27;;;;;;;37.75;29.48;;;;;;;18.09;100.00;100267.81;2615062;31;20034;-46
2021/09/15 17:17:55;;;;;;;39.58;31.85;;;;;;;18.10;100.00;100269.53;2614869;36;20066;-49
2021/09/15 17:20:22;;;;;;;34.45;28.23;;;;;;;18.06;100.00;100266.09;2614763;31;20037;-52
2021/09/15 17:22:50;;;;;;;37.88;31.70;;;;;;;18.08;100.00;100277.31;2614038;36;20034;-50
2021/09/15 17:25:19;;;;;;;36.75;30.25;;;;;;;18.03;100.00;100272.19;2613831;36;20035;-50
2021/09/15 17:27:47;;;;;;;43.05;31.23;;;;;;;18.01;100.00;100267.88;2615006;31;20031;-49
2021/09/15 17:30:16;;;;;;;36.45;30.60;;;;;;;18.02;100.00;100270.44;2614191;36;20038;-50
2021/09/15 17:32:43;;;;;;;35.10;28.05;;;;;;;18.01;100.00;100265.31;2615510;36;20031;-48
2021/09/15 17:35:11;;;;;;;35.67;28.67;;;;;;;18.00;100.00;100263.59;2615164;36;20657;-51
2021/09/15 17:37:38;;;;;;;37.45;29.08;;;;;;;17.96;100.00;100257.56;2614829;36;20038;-52
2021/09/15 17:40:06;;;;;;;33.80;29.13;;;;;;;17.96;100.00;100259.31;2615013;36;20034;-49
2021/09/15 17:42:33;;;;;;;38.38;30.63;;;;;;;17.91;100.00;100261.09;2615108;36;20031;-54
2021/09/15 17:45:00;;;;;;;41.10;31.20;;;;;;;17.91;100.00;100264.56;2616493;31;20555;-53
2021/09/15 17:47:28;;;;;;;37.78;30.45;;;;;;;17.90;100.00;100255.06;2615777;36;20041;-48
2021/09/15 17:49:56;;;;;;;38.70;30.80;;;;;;;17.90;100.00;100259.41;2616294;31;20065;-51
2021/09/15 17:52:25;;;;;;;41.47;33.55;;;;;;;17.90;100.00;100260.25;2616282;36;20536;-46
2021/09/15 17:54:52;;;;;;;41.22;32.22;;;;;;;17.90;100.00;100260.25;2615540;36;20030;-53
2021/09/15 17:57:20;;;;;;;43.25;33.40;;;;;;;17.91;100.00;100251.59;2614998;36;20030;-50
2021/09/15 17:59:47;;;;;;;41.30;32.38;;;;;;;17.90;100.00;100239.53;2617495;31;20030;-48
2021/09/15 18:02:15;;;;;;;40.38;33.72;;;;;;;17.89;100.00;100245.59;2616054;36;20153;-49
2021/09/15 18:04:42;;;;;;;41.35;32.53;;;;;;;17.89;100.00;100237.81;2617513;31;20046;-52
2021/09/15 18:07:10;;;;;;;40.97;32.25;;;;;;;17.90;100.00;100243.84;2617255;31;20039;-46
2021/09/15 18:09:38;;;;;;;40.15;31.95;;;;;;;17.89;100.00;100249.91;2615719;36;20037;-52
2021/09/15 18:12:07;;;;;;;44.70;32.97;;;;;;;17.89;100.00;100249.91;2615142;31;20575;-52
2021/09/15 18:14:34;;;;;;;41.65;34.45;;;;;;;17.89;100.00;100245.59;2615993;31;20026;-46
2021/09/15 18:17:01;;;;;;;40.63;33.97;;;;;;;17.90;100.00;100251.63;2615914;31;20042;-51
2021/09/15 18:19:28;;;;;;;42.00;33.72;;;;;;;17.88;100.00;100248.19;2615714;36;20041;-52
2021/09/15 18:21:55;;;;;;;43.75;34.13;;;;;;;17.88;100.00;100250.75;2615875;36;20443;-47
2021/09/15 18:24:22;;;;;;;43.47;33.70;;;;;;;17.85;100.00;100238.72;2616122;31;20061;-46
2021/09/15 18:26:50;;;;;;;40.85;32.75;;;;;;;17.85;100.00;100241.31;2615641;36;20042;-49
2021/09/15 18:29:17;;;;;;;43.45;33.78;;;;;;;17.84;100.00;100249.09;2615653;36;20972;-46
2021/09/15 18:31:44;;;;;;;42.95;35.53;;;;;;;17.84;100.00;100249.09;2615038;36;20038;-53
2021/09/15 18:34:11;;;;;;;42.95;32.78;;;;;;;17.81;100.00;100255.16;2614655;36;20031;-48
2021/09/15 18:36:38;;;;;;;40.78;33.17;;;;;;;17.81;100.00;100253.44;2616624;31;20555;-49
2021/09/15 18:39:05;;;;;;;41.92;34.00;;;;;;;17.83;100.00;100255.16;2614945;36;20042;-49
2021/09/15 18:41:33;;;;;;;42.03;33.78;;;;;;;17.81;100.00;100255.16;2615543;31;20057;-49
2021/09/15 18:44:00;;;;;;;42.47;33.58;;;;;;;17.80;100.00;100250.88;2614976;36;20034;-50